sensor_id;sensor_type;location;lat;lon;timestamp;P1;durP1;ratioP1;P2;durP2;ratioP2
11443;SDS011;5778;47.856;12.154;2023-06-10T00:02:12;7.03;;;6.40;;
11443;SDS011;5778;47.856;12.154;2023-06-10T00:04:39;8.77;;;6.17;;
11443;SDS011;5778;47.856;12.154;2023-06-10T00:07:06;8.47;;;6.03;;
11443;SDS011;5778;47.856;12.154;2023-06-10T00:09:34;7.07;;;6.13;;
11443;SDS011;5778;47.856;12.154;2023-06-10T00:12:03;8.63;;;6.00;;
11443;SDS011;5778;47.856;12.154;2023-06-10T00:14:32;7.27;;;6.57;;
11443;SDS011;5778;47.856;12.154;2023-06-10T00:16:59;6.50;;;5.90;;
11443;SDS011;5778;47.856;12.154;2023-06-10T00:19:26;7.17;;;6.57;;
11443;SDS011;5778;47.856;12.154;2023-06-10T00:21:55;6.70;;;6.10;;
11443;SDS011;5778;47.856;12.154;2023-06-10T00:24:22;7.00;;;6.30;;
11443;SDS011;5778;47.856;12.154;2023-06-10T00:26:50;6.90;;;6.17;;
11443;SDS011;5778;47.856;12.154;2023-06-10T00:29:19;7.23;;;6.63;;
11443;SDS011;5778;47.856;12.154;2023-06-10T00:31:46;6.40;;;5.80;;
11443;SDS011;5778;47.856;12.154;2023-06-10T00:34:12;7.23;;;6.53;;
11443;SDS011;5778;47.856;12.154;2023-06-10T00:36:39;6.80;;;6.17;;
11443;SDS011;5778;47.856;12.154;2023-06-10T00:39:08;7.03;;;6.43;;
11443;SDS011;5778;47.856;12.154;2023-06-10T00:41:35;6.90;;;6.30;;
11443;SDS011;5778;47.856;12.154;2023-06-10T00:44:02;6.70;;;6.10;;
11443;SDS011;5778;47.856;12.154;2023-06-10T00:46:31;7.20;;;6.50;;
11443;SDS011;5778;47.856;12.154;2023-06-10T00:48:58;6.53;;;5.93;;
11443;SDS011;5778;47.856;12.154;2023-06-10T00:51:26;7.23;;;6.50;;
11443;SDS011;5778;47.856;12.154;2023-06-10T00:53:53;8.13;;;7.43;;
11443;SDS011;5778;47.856;12.154;2023-06-10T00:56:21;8.67;;;6.80;;
11443;SDS011;5778;47.856;12.154;2023-06-10T00:58:48;7.17;;;6.57;;
11443;SDS011;5778;47.856;12.154;2023-06-10T01:01:16;7.67;;;7.00;;
11443;SDS011;5778;47.856;12.154;2023-06-10T01:03:46;6.97;;;6.37;;
11443;SDS011;5778;47.856;12.154;2023-06-10T01:06:14;7.57;;;6.93;;
11443;SDS011;5778;47.856;12.154;2023-06-10T01:08:52;7.87;;;7.17;;
11443;SDS011;5778;47.856;12.154;2023-06-10T01:11:25;7.40;;;6.80;;
11443;SDS011;5778;47.856;12.154;2023-06-10T01:13:56;7.07;;;6.47;;
11443;SDS011;5778;47.856;12.154;2023-06-10T01:16:24;7.80;;;6.70;;
11443;SDS011;5778;47.856;12.154;2023-06-10T01:18:53;8.07;;;6.80;;
11443;SDS011;5778;47.856;12.154;2023-06-10T01:21:22;7.37;;;6.67;;
11443;SDS011;5778;47.856;12.154;2023-06-10T01:23:50;8.10;;;7.30;;
11443;SDS011;5778;47.856;12.154;2023-06-10T01:26:18;7.20;;;6.50;;
11443;SDS011;5778;47.856;12.154;2023-06-10T01:28:51;7.27;;;6.60;;
11443;SDS011;5778;47.856;12.154;2023-06-10T01:31:23;7.60;;;6.80;;
11443;SDS011;5778;47.856;12.154;2023-06-10T01:34:01;7.03;;;6.43;;
11443;SDS011;5778;47.856;12.154;2023-06-10T01:36:34;7.33;;;6.63;;
11443;SDS011;5778;47.856;12.154;2023-06-10T01:39:02;7.70;;;7.00;;
11443;SDS011;5778;47.856;12.154;2023-06-10T01:41:31;8.37;;;7.47;;
11443;SDS011;5778;47.856;12.154;2023-06-10T01:43:58;8.40;;;7.60;;
11443;SDS011;5778;47.856;12.154;2023-06-10T01:46:25;7.87;;;7.07;;
11443;SDS011;5778;47.856;12.154;2023-06-10T01:48:52;7.97;;;7.27;;
11443;SDS011;5778;47.856;12.154;2023-06-10T01:51:19;8.07;;;7.23;;
11443;SDS011;5778;47.856;12.154;2023-06-10T01:53:48;8.20;;;7.50;;
11443;SDS011;5778;47.856;12.154;2023-06-10T01:56:15;7.37;;;6.63;;
11443;SDS011;5778;47.856;12.154;2023-06-10T01:58:45;7.43;;;6.73;;
11443;SDS011;5778;47.856;12.154;2023-06-10T02:01:12;8.67;;;7.10;;
11443;SDS011;5778;47.856;12.154;2023-06-10T02:03:39;7.67;;;6.97;;
11443;SDS011;5778;47.856;12.154;2023-06-10T02:06:08;7.70;;;7.00;;
11443;SDS011;5778;47.856;12.154;2023-06-10T02:08:36;6.57;;;6.07;;
11443;SDS011;5778;47.856;12.154;2023-06-10T02:11:04;7.47;;;6.77;;
11443;SDS011;5778;47.856;12.154;2023-06-10T02:13:32;7.80;;;7.13;;
11443;SDS011;5778;47.856;12.154;2023-06-10T02:15:59;8.20;;;7.40;;
11443;SDS011;5778;47.856;12.154;2023-06-10T02:18:28;8.57;;;7.87;;
11443;SDS011;5778;47.856;12.154;2023-06-10T02:20:55;8.90;;;8.10;;
11443;SDS011;5778;47.856;12.154;2023-06-10T02:23:22;8.87;;;8.07;;
11443;SDS011;5778;47.856;12.154;2023-06-10T02:25:49;9.00;;;8.17;;
11443;SDS011;5778;47.856;12.154;2023-06-10T02:28:18;8.80;;;8.00;;
11443;SDS011;5778;47.856;12.154;2023-06-10T02:30:45;8.43;;;7.57;;
11443;SDS011;5778;47.856;12.154;2023-06-10T02:33:13;7.90;;;7.23;;
11443;SDS011;5778;47.856;12.154;2023-06-10T02:35:41;9.27;;;7.70;;
11443;SDS011;5778;47.856;12.154;2023-06-10T02:38:08;7.43;;;6.83;;
11443;SDS011;5778;47.856;12.154;2023-06-10T02:40:35;8.13;;;7.33;;
11443;SDS011;5778;47.856;12.154;2023-06-10T02:43:02;8.20;;;7.33;;
11443;SDS011;5778;47.856;12.154;2023-06-10T02:45:34;8.17;;;7.47;;
11443;SDS011;5778;47.856;12.154;2023-06-10T02:48:03;8.03;;;7.23;;
11443;SDS011;5778;47.856;12.154;2023-06-10T02:50:31;8.10;;;7.40;;
11443;SDS011;5778;47.856;12.154;2023-06-10T02:53:06;7.70;;;7.00;;
11443;SDS011;5778;47.856;12.154;2023-06-10T02:55:36;7.70;;;7.00;;
11443;SDS011;5778;47.856;12.154;2023-06-10T02:58:08;7.87;;;7.17;;
11443;SDS011;5778;47.856;12.154;2023-06-10T03:00:37;8.50;;;7.70;;
11443;SDS011;5778;47.856;12.154;2023-06-10T03:03:09;8.63;;;7.30;;
11443;SDS011;5778;47.856;12.154;2023-06-10T03:05:45;8.07;;;7.37;;
11443;SDS011;5778;47.856;12.154;2023-06-10T03:08:12;8.10;;;7.30;;
11443;SDS011;5778;47.856;12.154;2023-06-10T03:10:42;7.83;;;7.20;;
11443;SDS011;5778;47.856;12.154;2023-06-10T03:13:13;8.30;;;7.60;;
11443;SDS011;5778;47.856;12.154;2023-06-10T03:15:43;9.20;;;7.87;;
11443;SDS011;5778;47.856;12.154;2023-06-10T03:18:14;7.93;;;7.23;;
11443;SDS011;5778;47.856;12.154;2023-06-10T03:20:43;8.93;;;8.13;;
11443;SDS011;5778;47.856;12.154;2023-06-10T03:23:10;9.17;;;8.37;;
11443;SDS011;5778;47.856;12.154;2023-06-10T03:25:38;8.97;;;8.17;;
11443;SDS011;5778;47.856;12.154;2023-06-10T03:28:05;8.53;;;7.80;;
11443;SDS011;5778;47.856;12.154;2023-06-10T03:30:34;8.93;;;8.13;;
11443;SDS011;5778;47.856;12.154;2023-06-10T03:33:03;8.87;;;8.07;;
11443;SDS011;5778;47.856;12.154;2023-06-10T03:35:31;8.03;;;7.33;;
11443;SDS011;5778;47.856;12.154;2023-06-10T03:38:00;8.20;;;7.40;;
11443;SDS011;5778;47.856;12.154;2023-06-10T03:40:28;8.73;;;8.00;;
11443;SDS011;5778;47.856;12.154;2023-06-10T03:42:55;8.40;;;7.60;;
11443;SDS011;5778;47.856;12.154;2023-06-10T03:45:22;8.57;;;7.20;;
11443;SDS011;5778;47.856;12.154;2023-06-10T03:47:50;7.90;;;7.23;;
11443;SDS011;5778;47.856;12.154;2023-06-10T03:50:23;8.10;;;7.27;;
11443;SDS011;5778;47.856;12.154;2023-06-10T03:52:51;8.50;;;7.70;;
11443;SDS011;5778;47.856;12.154;2023-06-10T03:55:22;8.67;;;7.87;;
11443;SDS011;5778;47.856;12.154;2023-06-10T03:57:49;8.80;;;8.00;;
11443;SDS011;5778;47.856;12.154;2023-06-10T04:00:17;8.70;;;7.90;;
11443;SDS011;5778;47.856;12.154;2023-06-10T04:02:49;8.20;;;7.50;;
11443;SDS011;5778;47.856;12.154;2023-06-10T04:05:36;7.63;;;7.03;;
11443;SDS011;5778;47.856;12.154;2023-06-10T04:08:03;8.97;;;8.27;;
11443;SDS011;5778;47.856;12.154;2023-06-10T04:10:30;9.00;;;8.13;;
11443;SDS011;5778;47.856;12.154;2023-06-10T04:12:57;8.60;;;7.87;;
11443;SDS011;5778;47.856;12.154;2023-06-10T04:15:28;8.47;;;7.77;;
11443;SDS011;5778;47.856;12.154;2023-06-10T04:17:58;8.57;;;7.80;;
11443;SDS011;5778;47.856;12.154;2023-06-10T04:20:26;8.93;;;8.13;;
11443;SDS011;5778;47.856;12.154;2023-06-10T04:22:55;9.50;;;8.40;;
11443;SDS011;5778;47.856;12.154;2023-06-10T04:25:22;9.90;;;8.90;;
11443;SDS011;5778;47.856;12.154;2023-06-10T04:27:49;9.77;;;8.87;;
11443;SDS011;5778;47.856;12.154;2023-06-10T04:30:17;9.67;;;8.87;;
11443;SDS011;5778;47.856;12.154;2023-06-10T04:32:44;9.23;;;8.43;;
11443;SDS011;5778;47.856;12.154;2023-06-10T04:35:15;8.97;;;8.17;;
11443;SDS011;5778;47.856;12.154;2023-06-10T04:37:44;8.37;;;7.60;;
11443;SDS011;5778;47.856;12.154;2023-06-10T04:40:13;8.57;;;7.67;;
11443;SDS011;5778;47.856;12.154;2023-06-10T04:42:41;10.30;;;8.20;;
11443;SDS011;5778;47.856;12.154;2023-06-10T04:45:09;8.07;;;7.37;;
11443;SDS011;5778;47.856;12.154;2023-06-10T04:47:36;7.30;;;6.70;;
11443;SDS011;5778;47.856;12.154;2023-06-10T04:50:04;7.10;;;6.47;;
11443;SDS011;5778;47.856;12.154;2023-06-10T04:52:32;6.97;;;6.27;;
11443;SDS011;5778;47.856;12.154;2023-06-10T04:55:00;6.93;;;5.70;;
11443;SDS011;5778;47.856;12.154;2023-06-10T04:57:28;6.93;;;6.30;;
11443;SDS011;5778;47.856;12.154;2023-06-10T04:59:55;7.10;;;6.40;;
11443;SDS011;5778;47.856;12.154;2023-06-10T05:02:22;7.57;;;6.87;;
11443;SDS011;5778;47.856;12.154;2023-06-10T05:04:49;7.97;;;7.27;;
11443;SDS011;5778;47.856;12.154;2023-06-10T05:07:16;8.20;;;7.40;;
11443;SDS011;5778;47.856;12.154;2023-06-10T05:09:43;7.97;;;7.27;;
11443;SDS011;5778;47.856;12.154;2023-06-10T05:12:10;7.73;;;7.10;;
11443;SDS011;5778;47.856;12.154;2023-06-10T05:14:38;7.93;;;7.23;;
11443;SDS011;5778;47.856;12.154;2023-06-10T05:17:05;8.67;;;7.70;;
11443;SDS011;5778;47.856;12.154;2023-06-10T05:19:32;8.30;;;7.60;;
11443;SDS011;5778;47.856;12.154;2023-06-10T05:22:01;7.63;;;6.90;;
11443;SDS011;5778;47.856;12.154;2023-06-10T05:24:28;6.77;;;6.13;;
11443;SDS011;5778;47.856;12.154;2023-06-10T05:26:54;7.70;;;7.00;;
11443;SDS011;5778;47.856;12.154;2023-06-10T05:29:21;8.27;;;7.47;;
11443;SDS011;5778;47.856;12.154;2023-06-10T05:31:49;8.77;;;7.37;;
11443;SDS011;5778;47.856;12.154;2023-06-10T05:34:16;7.83;;;7.03;;
11443;SDS011;5778;47.856;12.154;2023-06-10T05:36:43;8.23;;;7.30;;
11443;SDS011;5778;47.856;12.154;2023-06-10T05:39:10;8.07;;;6.70;;
11443;SDS011;5778;47.856;12.154;2023-06-10T05:41:37;9.03;;;6.60;;
11443;SDS011;5778;47.856;12.154;2023-06-10T05:44:04;7.53;;;6.60;;
11443;SDS011;5778;47.856;12.154;2023-06-10T05:46:31;6.53;;;5.93;;
11443;SDS011;5778;47.856;12.154;2023-06-10T05:48:59;6.63;;;5.93;;
11443;SDS011;5778;47.856;12.154;2023-06-10T05:51:26;6.00;;;5.50;;
11443;SDS011;5778;47.856;12.154;2023-06-10T05:53:53;6.37;;;5.77;;
11443;SDS011;5778;47.856;12.154;2023-06-10T05:56:20;6.43;;;5.73;;
11443;SDS011;5778;47.856;12.154;2023-06-10T05:58:47;7.07;;;6.47;;
11443;SDS011;5778;47.856;12.154;2023-06-10T06:01:14;7.43;;;6.50;;
11443;SDS011;5778;47.856;12.154;2023-06-10T06:03:41;6.57;;;6.03;;
11443;SDS011;5778;47.856;12.154;2023-06-10T06:06:09;7.00;;;6.40;;
11443;SDS011;5778;47.856;12.154;2023-06-10T06:08:36;7.57;;;6.60;;
11443;SDS011;5778;47.856;12.154;2023-06-10T06:11:03;6.63;;;6.13;;
11443;SDS011;5778;47.856;12.154;2023-06-10T06:13:30;6.57;;;5.97;;
11443;SDS011;5778;47.856;12.154;2023-06-10T06:15:57;7.83;;;7.10;;
11443;SDS011;5778;47.856;12.154;2023-06-10T06:18:23;8.03;;;6.97;;
11443;SDS011;5778;47.856;12.154;2023-06-10T06:20:50;7.80;;;7.03;;
11443;SDS011;5778;47.856;12.154;2023-06-10T06:23:18;7.27;;;6.40;;
11443;SDS011;5778;47.856;12.154;2023-06-10T06:25:46;6.53;;;5.90;;
11443;SDS011;5778;47.856;12.154;2023-06-10T06:28:12;7.33;;;6.63;;
11443;SDS011;5778;47.856;12.154;2023-06-10T06:30:39;7.00;;;6.27;;
11443;SDS011;5778;47.856;12.154;2023-06-10T06:33:06;6.10;;;5.60;;
11443;SDS011;5778;47.856;12.154;2023-06-10T06:35:33;7.60;;;6.50;;
11443;SDS011;5778;47.856;12.154;2023-06-10T06:38:00;6.80;;;6.20;;
11443;SDS011;5778;47.856;12.154;2023-06-10T06:40:30;6.47;;;5.87;;
11443;SDS011;5778;47.856;12.154;2023-06-10T06:42:57;6.10;;;5.50;;
11443;SDS011;5778;47.856;12.154;2023-06-10T06:45:56;7.10;;;6.50;;
11443;SDS011;5778;47.856;12.154;2023-06-10T06:48:24;6.57;;;6.03;;
11443;SDS011;5778;47.856;12.154;2023-06-10T06:50:51;7.80;;;7.10;;
11443;SDS011;5778;47.856;12.154;2023-06-10T06:53:18;8.03;;;7.33;;
11443;SDS011;5778;47.856;12.154;2023-06-10T06:55:46;7.77;;;7.17;;
11443;SDS011;5778;47.856;12.154;2023-06-10T06:58:13;8.63;;;7.93;;
11443;SDS011;5778;47.856;12.154;2023-06-10T07:00:40;8.23;;;7.53;;
11443;SDS011;5778;47.856;12.154;2023-06-10T07:03:06;7.93;;;7.23;;
11443;SDS011;5778;47.856;12.154;2023-06-10T07:05:37;6.70;;;6.20;;
11443;SDS011;5778;47.856;12.154;2023-06-10T07:08:04;8.53;;;7.70;;
11443;SDS011;5778;47.856;12.154;2023-06-10T07:10:31;8.67;;;7.80;;
11443;SDS011;5778;47.856;12.154;2023-06-10T07:13:00;8.40;;;7.63;;
11443;SDS011;5778;47.856;12.154;2023-06-10T07:15:27;8.53;;;7.80;;
11443;SDS011;5778;47.856;12.154;2023-06-10T07:17:54;8.30;;;7.60;;
11443;SDS011;5778;47.856;12.154;2023-06-10T07:20:21;8.13;;;7.43;;
11443;SDS011;5778;47.856;12.154;2023-06-10T07:22:48;8.27;;;7.47;;
11443;SDS011;5778;47.856;12.154;2023-06-10T07:25:15;9.00;;;8.20;;
11443;SDS011;5778;47.856;12.154;2023-06-10T07:27:42;8.50;;;7.80;;
11443;SDS011;5778;47.856;12.154;2023-06-10T07:30:10;8.27;;;7.57;;
11443;SDS011;5778;47.856;12.154;2023-06-10T07:32:38;9.83;;;8.10;;
11443;SDS011;5778;47.856;12.154;2023-06-10T07:35:08;8.50;;;7.80;;
11443;SDS011;5778;47.856;12.154;2023-06-10T07:37:36;9.20;;;8.40;;
11443;SDS011;5778;47.856;12.154;2023-06-10T07:40:03;8.73;;;7.93;;
11443;SDS011;5778;47.856;12.154;2023-06-10T07:42:31;9.13;;;8.33;;
11443;SDS011;5778;47.856;12.154;2023-06-10T07:44:58;8.60;;;7.80;;
11443;SDS011;5778;47.856;12.154;2023-06-10T07:47:27;8.60;;;7.90;;
11443;SDS011;5778;47.856;12.154;2023-06-10T07:49:54;8.27;;;7.60;;
11443;SDS011;5778;47.856;12.154;2023-06-10T07:52:20;7.70;;;7.00;;
11443;SDS011;5778;47.856;12.154;2023-06-10T07:54:47;8.90;;;8.10;;
11443;SDS011;5778;47.856;12.154;2023-06-10T07:57:15;9.17;;;8.30;;
11443;SDS011;5778;47.856;12.154;2023-06-10T07:59:42;9.23;;;8.43;;
11443;SDS011;5778;47.856;12.154;2023-06-10T08:02:09;8.50;;;7.70;;
11443;SDS011;5778;47.856;12.154;2023-06-10T08:04:37;8.90;;;8.00;;
11443;SDS011;5778;47.856;12.154;2023-06-10T08:07:04;9.23;;;8.43;;
11443;SDS011;5778;47.856;12.154;2023-06-10T08:09:31;8.50;;;7.80;;
11443;SDS011;5778;47.856;12.154;2023-06-10T08:11:58;9.37;;;8.27;;
11443;SDS011;5778;47.856;12.154;2023-06-10T08:14:25;8.97;;;8.10;;
11443;SDS011;5778;47.856;12.154;2023-06-10T08:16:52;8.93;;;8.13;;
11443;SDS011;5778;47.856;12.154;2023-06-10T08:19:19;8.37;;;7.57;;
11443;SDS011;5778;47.856;12.154;2023-06-10T08:21:47;8.40;;;7.70;;
11443;SDS011;5778;47.856;12.154;2023-06-10T08:24:14;8.63;;;7.93;;
11443;SDS011;5778;47.856;12.154;2023-06-10T08:26:43;9.40;;;8.50;;
11443;SDS011;5778;47.856;12.154;2023-06-10T08:29:11;9.43;;;8.63;;
11443;SDS011;5778;47.856;12.154;2023-06-10T08:31:40;10.37;;;9.47;;
11443;SDS011;5778;47.856;12.154;2023-06-10T08:34:08;9.40;;;8.60;;
11443;SDS011;5778;47.856;12.154;2023-06-10T08:36:35;9.57;;;8.73;;
11443;SDS011;5778;47.856;12.154;2023-06-10T08:39:03;8.90;;;8.00;;
11443;SDS011;5778;47.856;12.154;2023-06-10T08:41:30;9.77;;;8.97;;
11443;SDS011;5778;47.856;12.154;2023-06-10T08:44:03;9.50;;;8.70;;
11443;SDS011;5778;47.856;12.154;2023-06-10T08:46:39;10.27;;;9.37;;
11443;SDS011;5778;47.856;12.154;2023-06-10T08:49:11;9.23;;;8.43;;
11443;SDS011;5778;47.856;12.154;2023-06-10T08:51:46;9.97;;;9.07;;
11443;SDS011;5778;47.856;12.154;2023-06-10T08:54:20;8.60;;;7.90;;
11443;SDS011;5778;47.856;12.154;2023-06-10T08:56:51;7.10;;;6.50;;
11443;SDS011;5778;47.856;12.154;2023-06-10T08:59:21;6.93;;;6.40;;
11443;SDS011;5778;47.856;12.154;2023-06-10T09:01:50;6.60;;;6.00;;
11443;SDS011;5778;47.856;12.154;2023-06-10T09:04:18;6.33;;;5.83;;
11443;SDS011;5778;47.856;12.154;2023-06-10T09:06:45;6.60;;;6.00;;
11443;SDS011;5778;47.856;12.154;2023-06-10T09:09:14;6.20;;;5.60;;
11443;SDS011;5778;47.856;12.154;2023-06-10T09:11:43;6.07;;;5.63;;
11443;SDS011;5778;47.856;12.154;2023-06-10T09:14:10;6.50;;;6.00;;
11443;SDS011;5778;47.856;12.154;2023-06-10T09:16:38;5.70;;;5.30;;
11443;SDS011;5778;47.856;12.154;2023-06-10T09:19:05;6.17;;;5.07;;
11443;SDS011;5778;47.856;12.154;2023-06-10T09:21:33;5.53;;;5.07;;
11443;SDS011;5778;47.856;12.154;2023-06-10T09:24:01;5.40;;;5.00;;
11443;SDS011;5778;47.856;12.154;2023-06-10T09:26:28;5.70;;;5.30;;
11443;SDS011;5778;47.856;12.154;2023-06-10T09:29:02;5.67;;;5.17;;
11443;SDS011;5778;47.856;12.154;2023-06-10T09:31:29;5.20;;;4.80;;
11443;SDS011;5778;47.856;12.154;2023-06-10T09:34:04;5.00;;;4.60;;
11443;SDS011;5778;47.856;12.154;2023-06-10T09:36:32;4.33;;;4.03;;
11443;SDS011;5778;47.856;12.154;2023-06-10T09:38:59;4.27;;;3.97;;
11443;SDS011;5778;47.856;12.154;2023-06-10T09:41:31;5.83;;;5.33;;
11443;SDS011;5778;47.856;12.154;2023-06-10T09:44:00;5.07;;;4.67;;
11443;SDS011;5778;47.856;12.154;2023-06-10T09:46:30;5.87;;;5.47;;
11443;SDS011;5778;47.856;12.154;2023-06-10T09:48:58;5.77;;;5.17;;
11443;SDS011;5778;47.856;12.154;2023-06-10T09:51:25;6.10;;;5.60;;
11443;SDS011;5778;47.856;12.154;2023-06-10T09:53:53;6.20;;;5.60;;
11443;SDS011;5778;47.856;12.154;2023-06-10T09:56:20;5.63;;;5.13;;
11443;SDS011;5778;47.856;12.154;2023-06-10T09:58:49;5.80;;;5.30;;
11443;SDS011;5778;47.856;12.154;2023-06-10T10:01:20;5.83;;;5.10;;
11443;SDS011;5778;47.856;12.154;2023-06-10T10:03:48;4.63;;;4.23;;
11443;SDS011;5778;47.856;12.154;2023-06-10T10:06:17;5.10;;;4.70;;
11443;SDS011;5778;47.856;12.154;2023-06-10T10:08:46;4.93;;;4.43;;
11443;SDS011;5778;47.856;12.154;2023-06-10T10:11:14;4.73;;;4.40;;
11443;SDS011;5778;47.856;12.154;2023-06-10T10:13:44;4.50;;;4.20;;
11443;SDS011;5778;47.856;12.154;2023-06-10T10:16:13;4.80;;;4.40;;
11443;SDS011;5778;47.856;12.154;2023-06-10T10:18:45;4.17;;;3.87;;
11443;SDS011;5778;47.856;12.154;2023-06-10T10:21:16;4.33;;;4.03;;
11443;SDS011;5778;47.856;12.154;2023-06-10T10:23:50;4.77;;;4.37;;
11443;SDS011;5778;47.856;12.154;2023-06-10T10:26:21;4.07;;;3.77;;
11443;SDS011;5778;47.856;12.154;2023-06-10T10:28:49;4.50;;;4.00;;
11443;SDS011;5778;47.856;12.154;2023-06-10T10:31:24;4.20;;;3.80;;
11443;SDS011;5778;47.856;12.154;2023-06-10T10:33:58;4.13;;;3.90;;
11443;SDS011;5778;47.856;12.154;2023-06-10T10:36:26;4.63;;;4.23;;
11443;SDS011;5778;47.856;12.154;2023-06-10T10:38:54;4.20;;;3.90;;
11443;SDS011;5778;47.856;12.154;2023-06-10T10:41:21;3.97;;;3.67;;
11443;SDS011;5778;47.856;12.154;2023-06-10T10:43:51;4.33;;;4.03;;
11443;SDS011;5778;47.856;12.154;2023-06-10T10:46:19;4.27;;;3.87;;
11443;SDS011;5778;47.856;12.154;2023-06-10T10:48:49;4.30;;;4.00;;
11443;SDS011;5778;47.856;12.154;2023-06-10T10:51:21;3.87;;;3.67;;
11443;SDS011;5778;47.856;12.154;2023-06-10T10:56:39;4.00;;;3.70;;
11443;SDS011;5778;47.856;12.154;2023-06-10T10:59:07;4.30;;;3.90;;
11443;SDS011;5778;47.856;12.154;2023-06-10T11:01:41;4.00;;;3.70;;
11443;SDS011;5778;47.856;12.154;2023-06-10T11:04:11;4.03;;;3.63;;
11443;SDS011;5778;47.856;12.154;2023-06-10T11:06:39;4.07;;;3.77;;
11443;SDS011;5778;47.856;12.154;2023-06-10T11:09:27;3.83;;;3.63;;
11443;SDS011;5778;47.856;12.154;2023-06-10T11:11:56;4.30;;;3.97;;
11443;SDS011;5778;47.856;12.154;2023-06-10T11:14:26;4.40;;;4.00;;
11443;SDS011;5778;47.856;12.154;2023-06-10T11:16:56;3.93;;;3.63;;
11443;SDS011;5778;47.856;12.154;2023-06-10T11:19:33;3.87;;;3.43;;
11443;SDS011;5778;47.856;12.154;2023-06-10T11:22:02;3.53;;;3.33;;
11443;SDS011;5778;47.856;12.154;2023-06-10T11:24:32;3.73;;;3.43;;
11443;SDS011;5778;47.856;12.154;2023-06-10T11:27:14;3.40;;;3.20;;
11443;SDS011;5778;47.856;12.154;2023-06-10T11:29:55;3.70;;;3.40;;
11443;SDS011;5778;47.856;12.154;2023-06-10T11:32:23;3.65;;;3.03;;
11443;SDS011;5778;47.856;12.154;2023-06-10T11:34:51;3.20;;;3.00;;
11443;SDS011;5778;47.856;12.154;2023-06-10T11:37:21;3.20;;;2.90;;
11443;SDS011;5778;47.856;12.154;2023-06-10T11:39:51;3.07;;;2.87;;
11443;SDS011;5778;47.856;12.154;2023-06-10T11:42:18;2.93;;;2.73;;
11443;SDS011;5778;47.856;12.154;2023-06-10T11:44:48;3.10;;;2.90;;
11443;SDS011;5778;47.856;12.154;2023-06-10T11:47:16;3.07;;;2.87;;
11443;SDS011;5778;47.856;12.154;2023-06-10T11:49:43;2.75;;;2.55;;
11443;SDS011;5778;47.856;12.154;2023-06-10T11:52:10;3.60;;;2.67;;
11443;SDS011;5778;47.856;12.154;2023-06-10T11:54:39;2.90;;;2.70;;
11443;SDS011;5778;47.856;12.154;2023-06-10T11:57:06;2.93;;;2.73;;
11443;SDS011;5778;47.856;12.154;2023-06-10T11:59:33;2.80;;;2.60;;
11443;SDS011;5778;47.856;12.154;2023-06-10T12:02:00;2.90;;;2.60;;
11443;SDS011;5778;47.856;12.154;2023-06-10T12:04:28;3.43;;;2.53;;
11443;SDS011;5778;47.856;12.154;2023-06-10T12:06:55;2.60;;;2.40;;
11443;SDS011;5778;47.856;12.154;2023-06-10T12:09:23;2.77;;;2.57;;
11443;SDS011;5778;47.856;12.154;2023-06-10T12:11:54;2.90;;;2.70;;
11443;SDS011;5778;47.856;12.154;2023-06-10T12:17:22;2.73;;;2.53;;
11443;SDS011;5778;47.856;12.154;2023-06-10T12:19:50;3.33;;;2.70;;
11443;SDS011;5778;47.856;12.154;2023-06-10T12:22:17;3.03;;;2.83;;
11443;SDS011;5778;47.856;12.154;2023-06-10T12:24:46;3.60;;;3.40;;
11443;SDS011;5778;47.856;12.154;2023-06-10T12:27:27;3.90;;;3.60;;
11443;SDS011;5778;47.856;12.154;2023-06-10T12:29:55;3.77;;;3.47;;
11443;SDS011;5778;47.856;12.154;2023-06-10T12:32:34;4.00;;;3.63;;
11443;SDS011;5778;47.856;12.154;2023-06-10T12:35:03;3.93;;;3.67;;
11443;SDS011;5778;47.856;12.154;2023-06-10T12:37:31;4.27;;;3.97;;
11443;SDS011;5778;47.856;12.154;2023-06-10T12:40:00;4.70;;;4.30;;
11443;SDS011;5778;47.856;12.154;2023-06-10T12:42:30;4.80;;;4.40;;
11443;SDS011;5778;47.856;12.154;2023-06-10T12:44:59;4.67;;;4.27;;
11443;SDS011;5778;47.856;12.154;2023-06-10T12:47:30;4.17;;;3.70;;
11443;SDS011;5778;47.856;12.154;2023-06-10T12:50:00;4.20;;;3.90;;
11443;SDS011;5778;47.856;12.154;2023-06-10T12:52:28;4.20;;;3.60;;
11443;SDS011;5778;47.856;12.154;2023-06-10T12:54:55;4.07;;;3.77;;
11443;SDS011;5778;47.856;12.154;2023-06-10T12:57:24;5.10;;;4.10;;
11443;SDS011;5778;47.856;12.154;2023-06-10T12:59:52;4.30;;;3.90;;
11443;SDS011;5778;47.856;12.154;2023-06-10T13:02:22;4.30;;;3.90;;
11443;SDS011;5778;47.856;12.154;2023-06-10T13:04:49;4.73;;;4.33;;
11443;SDS011;5778;47.856;12.154;2023-06-10T13:07:17;3.70;;;3.50;;
11443;SDS011;5778;47.856;12.154;2023-06-10T13:09:43;4.23;;;3.93;;
11443;SDS011;5778;47.856;12.154;2023-06-10T13:12:14;4.20;;;3.90;;
11443;SDS011;5778;47.856;12.154;2023-06-10T13:14:42;4.03;;;3.73;;
11443;SDS011;5778;47.856;12.154;2023-06-10T13:17:11;4.23;;;3.93;;
11443;SDS011;5778;47.856;12.154;2023-06-10T13:19:37;3.77;;;3.47;;
11443;SDS011;5778;47.856;12.154;2023-06-10T13:22:04;3.93;;;3.63;;
11443;SDS011;5778;47.856;12.154;2023-06-10T13:24:31;3.60;;;3.30;;
11443;SDS011;5778;47.856;12.154;2023-06-10T13:26:58;3.60;;;3.30;;
11443;SDS011;5778;47.856;12.154;2023-06-10T13:29:25;3.80;;;3.33;;
11443;SDS011;5778;47.856;12.154;2023-06-10T13:31:52;3.53;;;3.33;;
11443;SDS011;5778;47.856;12.154;2023-06-10T13:34:21;3.40;;;3.20;;
11443;SDS011;5778;47.856;12.154;2023-06-10T13:36:47;3.30;;;3.10;;
11443;SDS011;5778;47.856;12.154;2023-06-10T13:39:14;3.50;;;3.30;;
11443;SDS011;5778;47.856;12.154;2023-06-10T13:41:41;3.40;;;3.10;;
11443;SDS011;5778;47.856;12.154;2023-06-10T13:44:08;3.27;;;3.07;;
11443;SDS011;5778;47.856;12.154;2023-06-10T13:46:35;3.43;;;3.00;;
11443;SDS011;5778;47.856;12.154;2023-06-10T13:49:02;3.50;;;3.30;;
11443;SDS011;5778;47.856;12.154;2023-06-10T13:51:30;3.30;;;3.00;;
11443;SDS011;5778;47.856;12.154;2023-06-10T13:53:57;3.28;;;3.08;;
11443;SDS011;5778;47.856;12.154;2023-06-10T13:56:24;3.10;;;2.90;;
11443;SDS011;5778;47.856;12.154;2023-06-10T13:58:51;3.17;;;2.97;;
11443;SDS011;5778;47.856;12.154;2023-06-10T14:01:18;2.85;;;2.65;;
11443;SDS011;5778;47.856;12.154;2023-06-10T14:03:45;3.33;;;2.65;;
11443;SDS011;5778;47.856;12.154;2023-06-10T14:06:12;2.87;;;2.67;;
11443;SDS011;5778;47.856;12.154;2023-06-10T14:08:44;2.80;;;2.60;;
11443;SDS011;5778;47.856;12.154;2023-06-10T14:11:11;3.63;;;3.00;;
11443;SDS011;5778;47.856;12.154;2023-06-10T14:13:38;3.22;;;2.92;;
11443;SDS011;5778;47.856;12.154;2023-06-10T14:16:05;2.60;;;2.45;;
11443;SDS011;5778;47.856;12.154;2023-06-10T14:18:32;2.75;;;2.55;;
11443;SDS011;5778;47.856;12.154;2023-06-10T14:20:59;2.50;;;2.40;;
11443;SDS011;5778;47.856;12.154;2023-06-10T14:23:26;2.53;;;2.35;;
11443;SDS011;5778;47.856;12.154;2023-06-10T14:25:56;2.58;;;2.33;;
11443;SDS011;5778;47.856;12.154;2023-06-10T14:28:24;2.88;;;2.67;;
11443;SDS011;5778;47.856;12.154;2023-06-10T14:30:51;2.88;;;2.67;;
11443;SDS011;5778;47.856;12.154;2023-06-10T14:33:18;3.60;;;2.72;;
11443;SDS011;5778;47.856;12.154;2023-06-10T14:35:45;2.92;;;2.58;;
11443;SDS011;5778;47.856;12.154;2023-06-10T14:38:11;2.88;;;2.70;;
11443;SDS011;5778;47.856;12.154;2023-06-10T14:40:38;3.10;;;2.80;;
11443;SDS011;5778;47.856;12.154;2023-06-10T14:43:06;2.92;;;2.72;;
11443;SDS011;5778;47.856;12.154;2023-06-10T14:45:35;3.00;;;2.80;;
11443;SDS011;5778;47.856;12.154;2023-06-10T14:48:02;2.80;;;2.70;;
11443;SDS011;5778;47.856;12.154;2023-06-10T14:50:29;3.30;;;3.10;;
11443;SDS011;5778;47.856;12.154;2023-06-10T14:52:57;2.65;;;2.55;;
11443;SDS011;5778;47.856;12.154;2023-06-10T14:55:24;3.30;;;3.10;;
11443;SDS011;5778;47.856;12.154;2023-06-10T14:57:51;3.25;;;3.05;;
11443;SDS011;5778;47.856;12.154;2023-06-10T15:00:19;4.03;;;3.63;;
11443;SDS011;5778;47.856;12.154;2023-06-10T15:02:48;3.55;;;3.22;;